createdAt,value
2023-04-18T00:00:15.249Z,100906.56
2023-04-18T00:02:45.601Z,100909.38
2023-04-18T00:05:18.248Z,100910.72
2023-04-18T00:07:47.224Z,100911.44
2023-04-18T00:10:17.097Z,100903.44
2023-04-18T00:12:45.630Z,100909.88
2023-04-18T00:15:14.046Z,100912.16
2023-04-18T00:17:42.477Z,100905.25
2023-04-18T00:20:12.778Z,100890.34
2023-04-18T00:22:42.905Z,100908.44
2023-04-18T00:25:12.275Z,100908.84
2023-04-18T00:27:42.852Z,100904.16
2023-04-18T00:30:12.099Z,100900.50
2023-04-18T00:32:40.545Z,100902.47
2023-04-18T00:35:09.596Z,100899.72
2023-04-18T00:37:38.477Z,100896.38
2023-04-18T00:40:08.055Z,100893.38
2023-04-18T00:42:36.515Z,100894.81
2023-04-18T00:45:07.467Z,100896.03
2023-04-18T00:47:36.338Z,100887.84
2023-04-18T00:50:06.840Z,100887.63
2023-04-18T00:52:36.193Z,100882.38
2023-04-18T00:55:05.458Z,100887.13
2023-04-18T00:57:34.001Z,100883.16
2023-04-18T01:00:04.376Z,100883.53
2023-04-18T01:02:35.905Z,100877.41
2023-04-18T01:05:05.450Z,100879.72
2023-04-18T01:07:33.968Z,100873.56
2023-04-18T01:10:03.810Z,100854.09
2023-04-18T01:12:33.371Z,100881.56
2023-04-18T01:15:03.995Z,100864.38
2023-04-18T01:17:34.688Z,100873.72
2023-04-18T01:20:05.722Z,100867.34
2023-04-18T01:22:35.178Z,100846.19
2023-04-18T01:25:10.251Z,100859.97
2023-04-18T01:27:38.704Z,100864.47
2023-04-18T01:30:08.522Z,100861.19
2023-04-18T01:32:37.100Z,100858.06
2023-04-18T01:35:06.401Z,100870.53
2023-04-18T01:37:36.454Z,100851.28
2023-04-18T01:40:05.915Z,100847.59
2023-04-18T01:42:35.751Z,100850.72
2023-04-18T01:45:04.303Z,100847.84
2023-04-18T01:47:32.738Z,100850.00
2023-04-18T01:50:01.200Z,100854.25
2023-04-18T01:52:30.292Z,100850.88
2023-04-18T01:54:58.736Z,100849.31
2023-04-18T01:57:27.049Z,100856.81
2023-04-18T01:59:56.907Z,100860.22
2023-04-18T02:02:25.407Z,100856.94
2023-04-18T02:04:53.829Z,100853.69
2023-04-18T02:07:22.299Z,100851.88
2023-04-18T02:09:50.679Z,100853.28
2023-04-18T02:12:19.166Z,100857.78
2023-04-18T02:14:47.527Z,100856.44
2023-04-18T02:17:17.306Z,100862.94
2023-04-18T02:19:45.790Z,100857.25
2023-04-18T02:22:14.254Z,100854.22
2023-04-18T02:24:42.752Z,100857.50
2023-04-18T02:27:11.712Z,100814.34
2023-04-18T02:29:40.145Z,100851.34
2023-04-18T02:32:09.310Z,100856.03
2023-04-18T02:34:39.617Z,100863.44
2023-04-18T02:37:08.144Z,100863.91
2023-04-18T02:39:36.575Z,100866.78
2023-04-18T02:42:05.056Z,100853.84
2023-04-18T02:44:33.513Z,100858.31
2023-04-18T02:47:01.920Z,100858.69
2023-04-18T02:49:30.772Z,100858.44
2023-04-18T02:52:00.583Z,100861.22
2023-04-18T02:54:29.016Z,100862.41
2023-04-18T02:57:03.807Z,100864.56
2023-04-18T02:59:48.290Z,100862.13
2023-04-18T03:02:35.328Z,100861.41
2023-04-18T03:05:15.539Z,100867.56
2023-04-18T03:07:45.840Z,100859.59
2023-04-18T03:10:15.476Z,100860.44
2023-04-18T03:12:44.006Z,100868.28
2023-04-18T03:15:12.946Z,100872.88
2023-04-18T03:17:41.448Z,100865.88
2023-04-18T03:20:11.060Z,100869.38
2023-04-18T03:22:39.489Z,100868.41
2023-04-18T03:25:10.601Z,100855.25
2023-04-18T03:27:46.149Z,100859.09
2023-04-18T03:30:18.606Z,100859.69
2023-04-18T03:32:53.072Z,100867.88
2023-04-18T03:35:21.567Z,100865.13
2023-04-18T03:37:50.554Z,100864.03
2023-04-18T03:40:26.797Z,100866.69
2023-04-18T03:43:01.021Z,100865.34
2023-04-18T03:45:29.449Z,100861.94
2023-04-18T03:47:58.012Z,100859.63
2023-04-18T03:50:27.220Z,100857.09
2023-04-18T03:52:57.524Z,100868.91
2023-04-18T03:55:27.522Z,100861.28
2023-04-18T03:57:56.060Z,100861.53
2023-04-18T04:00:29.156Z,100867.91
2023-04-18T04:03:03.694Z,100861.13
2023-04-18T04:05:32.466Z,100857.75
2023-04-18T04:08:00.811Z,100864.34
2023-04-18T04:10:32.702Z,100855.03
2023-04-18T04:13:01.188Z,100856.09
2023-04-18T04:15:31.373Z,100859.69
2023-04-18T04:18:06.348Z,100852.09
2023-04-18T04:20:37.509Z,100857.78
2023-04-18T04:23:12.213Z,100866.06
2023-04-18T04:25:45.703Z,100864.84
2023-04-18T04:28:24.738Z,100868.28
2023-04-18T04:30:58.542Z,100870.31
2023-04-18T04:33:28.879Z,100867.22
2023-04-18T04:36:01.543Z,100868.56
2023-04-18T04:38:32.100Z,100871.00
2023-04-18T04:41:03.030Z,100874.19
2023-04-18T04:43:32.341Z,100879.50
2023-04-18T04:46:01.138Z,100875.25
2023-04-18T04:48:29.635Z,100874.84
2023-04-18T04:50:59.535Z,100880.47
2023-04-18T04:53:31.559Z,100876.22
2023-04-18T04:56:04.953Z,100866.69
2023-04-18T04:58:35.253Z,100878.56
2023-04-18T05:01:10.814Z,100880.47
2023-04-18T05:03:39.737Z,100890.13
2023-04-18T05:06:09.436Z,100884.81
2023-04-18T05:08:37.884Z,100883.97
2023-04-18T05:11:07.678Z,100884.59
2023-04-18T05:13:36.031Z,100891.59
2023-04-18T05:16:04.797Z,100889.69
2023-04-18T05:18:34.918Z,100883.44
2023-04-18T05:21:03.521Z,100866.81
2023-04-18T05:23:32.347Z,100890.31
2023-04-18T05:26:00.812Z,100889.41
2023-04-18T05:28:30.701Z,100889.66
2023-04-18T05:31:02.248Z,100893.09
2023-04-18T05:33:32.633Z,100884.16
2023-04-18T05:36:01.421Z,100892.47
2023-04-18T05:38:29.867Z,100889.28
2023-04-18T05:41:00.477Z,100892.78
2023-04-18T05:43:30.370Z,100891.38
2023-04-18T05:45:58.801Z,100895.41
2023-04-18T05:48:27.190Z,100900.13
2023-04-18T05:50:55.923Z,100902.88
2023-04-18T05:53:24.680Z,100901.97
2023-04-18T05:55:53.079Z,100894.88
2023-04-18T05:58:21.535Z,100901.28
2023-04-18T06:00:51.319Z,100904.56
2023-04-18T06:03:20.035Z,100898.13
2023-04-18T06:05:48.700Z,100905.78
2023-04-18T06:08:17.156Z,100905.06
2023-04-18T06:10:45.615Z,100908.56
2023-04-18T06:13:13.976Z,100907.00
2023-04-18T06:15:42.354Z,100903.63
2023-04-18T06:18:12.211Z,100899.13
2023-04-18T06:20:42.220Z,100903.56
2023-04-18T06:23:10.678Z,100901.56
2023-04-18T06:25:39.102Z,100897.72
2023-04-18T06:28:07.490Z,100893.34
2023-04-18T06:30:36.003Z,100901.59
2023-04-18T06:33:04.614Z,100898.69
2023-04-18T06:35:34.660Z,100900.84
2023-04-18T06:38:03.200Z,100897.22
2023-04-18T06:40:31.665Z,100905.19
2023-04-18T06:43:00.090Z,100904.97
2023-04-18T06:45:31.078Z,100910.13
2023-04-18T06:48:00.257Z,100908.91
2023-04-18T06:50:28.552Z,100906.38
2023-04-18T06:52:58.487Z,100904.81
2023-04-18T06:55:26.851Z,100902.91
2023-04-18T06:57:55.230Z,100903.66
2023-04-18T07:00:24.006Z,100906.75
2023-04-18T07:02:52.565Z,100904.91
2023-04-18T07:05:21.148Z,100899.56
2023-04-18T07:07:49.713Z,100908.25
2023-04-18T07:10:19.493Z,100906.34
2023-04-18T07:12:48.129Z,100906.06
2023-04-18T07:15:16.539Z,100900.56
2023-04-18T07:17:45.047Z,100900.66
2023-04-18T07:20:14.436Z,100899.13
2023-04-18T07:22:43.032Z,100892.56
2023-04-18T07:25:11.428Z,100895.00
2023-04-18T07:27:41.305Z,100893.78
2023-04-18T07:30:10.828Z,100897.38
2023-04-18T07:32:39.404Z,100899.25
2023-04-18T07:35:08.178Z,100896.13
2023-04-18T07:37:36.688Z,100896.34
2023-04-18T07:40:06.128Z,100903.53
2023-04-18T07:42:34.598Z,100897.97
2023-04-18T07:45:04.652Z,100909.88
2023-04-18T07:47:33.596Z,100902.81
2023-04-18T07:50:02.912Z,100902.28
2023-04-18T07:52:31.242Z,100905.91
2023-04-18T07:54:59.681Z,100901.53
2023-04-18T07:57:28.063Z,100911.53
2023-04-18T07:59:57.020Z,100905.38
2023-04-18T08:02:26.960Z,100908.53
2023-04-18T08:04:56.205Z,100906.38
2023-04-18T08:07:24.886Z,100909.28
2023-04-18T08:09:53.294Z,100903.78
2023-04-18T08:12:22.718Z,100907.78
2023-04-18T08:14:51.156Z,100916.06
2023-04-18T08:17:19.548Z,100907.38
2023-04-18T08:19:49.456Z,100910.28
2023-04-18T08:22:17.835Z,100911.31
2023-04-18T08:25:01.043Z,100905.81
2023-04-18T08:27:33.826Z,100912.53
2023-04-18T08:30:04.283Z,100913.00
2023-04-18T08:32:33.176Z,100919.44
2023-04-18T08:35:03.953Z,100913.47
2023-04-18T08:37:32.770Z,100920.28
2023-04-18T08:40:01.147Z,100922.06
2023-04-18T08:42:30.389Z,100918.00
2023-04-18T08:45:00.691Z,100921.72
2023-04-18T08:47:31.232Z,100911.22
2023-04-18T08:49:59.950Z,100923.53
2023-04-18T08:52:31.189Z,100924.94
2023-04-18T08:54:59.711Z,100921.72
2023-04-18T08:57:28.169Z,100929.69
2023-04-18T08:59:56.674Z,100925.38
2023-04-18T09:02:39.203Z,100924.03
2023-04-18T09:05:13.200Z,100917.66
2023-04-18T09:07:43.851Z,100919.22
2023-04-18T09:10:12.847Z,100920.69
2023-04-18T09:12:50.427Z,100925.56
2023-04-18T09:15:22.739Z,100932.44
2023-04-18T09:17:54.070Z,100917.91
2023-04-18T09:20:34.884Z,100921.78
2023-04-18T09:23:05.872Z,100923.00
2023-04-18T09:25:36.136Z,100891.47
2023-04-18T09:28:06.043Z,100914.06
2023-04-18T09:30:38.082Z,100910.81
2023-04-18T09:33:09.669Z,100911.13
2023-04-18T09:35:38.594Z,100917.31
2023-04-18T09:38:09.284Z,100910.69
2023-04-18T09:40:37.986Z,100913.72
2023-04-18T09:43:19.960Z,100903.25
2023-04-18T09:45:49.443Z,100900.69
2023-04-18T09:48:17.912Z,100895.91
2023-04-18T09:50:48.852Z,100899.00
2023-04-18T09:53:21.110Z,100900.03
2023-04-18T09:55:55.570Z,100899.41
2023-04-18T09:58:33.652Z,100899.00
2023-04-18T10:01:02.864Z,100891.72
2023-04-18T10:03:35.859Z,100892.91
2023-04-18T10:06:04.873Z,100884.41
2023-04-18T10:08:35.853Z,100884.66
2023-04-18T10:11:04.385Z,100884.09
2023-04-18T10:13:34.011Z,100883.47
2023-04-18T10:16:02.880Z,100874.13
2023-04-18T10:18:31.332Z,100876.44
2023-04-18T10:21:03.306Z,100874.53
2023-04-18T10:23:40.710Z,100870.38
2023-04-18T10:26:09.709Z,100864.31
2023-04-18T10:28:55.290Z,100862.84
2023-04-18T10:31:24.859Z,100868.28
2023-04-18T10:34:04.684Z,100866.38
2023-04-18T10:36:34.359Z,100864.69
2023-04-18T10:39:22.065Z,100862.00
2023-04-18T10:41:51.801Z,100861.13
2023-04-18T10:44:22.838Z,100856.28
2023-04-18T10:47:23.100Z,100856.88
2023-04-18T10:49:57.597Z,100856.88
2023-04-18T10:52:26.619Z,100856.03
2023-04-18T10:57:39.506Z,100851.41
2023-04-18T11:00:11.397Z,100849.50
2023-04-18T11:02:40.595Z,100848.06
2023-04-18T11:05:10.967Z,100851.19
2023-04-18T11:07:40.823Z,100782.28
2023-04-18T11:10:11.562Z,100848.84
2023-04-18T11:12:41.782Z,100839.78
2023-04-18T11:15:12.755Z,100833.00
2023-04-18T11:17:41.829Z,100795.81
2023-04-18T11:20:12.964Z,100841.28
2023-04-18T11:22:48.887Z,100833.88
2023-04-18T11:25:19.932Z,100832.81
2023-04-18T11:27:51.601Z,100844.75
2023-04-18T11:30:20.242Z,100809.59
2023-04-18T11:32:48.686Z,100835.38
2023-04-18T11:35:17.662Z,100830.19
2023-04-18T11:37:46.820Z,100825.06
2023-04-18T11:40:15.576Z,100826.09
2023-04-18T11:42:45.481Z,100821.63
2023-04-18T11:45:15.521Z,100819.38
2023-04-18T11:47:45.070Z,100819.94
2023-04-18T11:50:14.694Z,100816.53
2023-04-18T11:52:44.245Z,100819.03
2023-04-18T11:55:17.660Z,100824.78
2023-04-18T11:57:54.951Z,100824.25
2023-04-18T12:00:34.055Z,100822.31
2023-04-18T12:03:04.562Z,100826.97
2023-04-18T12:05:36.040Z,100827.81
2023-04-18T12:08:09.438Z,100832.91
2023-04-18T12:10:38.075Z,100827.16
2023-04-18T12:13:09.832Z,100834.78
2023-04-18T12:15:40.140Z,100824.75
2023-04-18T12:18:09.604Z,100823.44
2023-04-18T12:20:39.708Z,100832.44
2023-04-18T12:23:08.628Z,100824.00
2023-04-18T12:25:37.368Z,100824.53
2023-04-18T12:28:16.929Z,100821.59
2023-04-18T12:30:45.343Z,100818.53
2023-04-18T12:33:13.838Z,100822.09
2023-04-18T12:35:42.670Z,100816.72
2023-04-18T12:38:11.183Z,100814.84
2023-04-18T12:40:40.864Z,100820.91
2023-04-18T12:43:09.321Z,100814.81
2023-04-18T12:45:39.114Z,100810.56
2023-04-18T12:48:07.891Z,100822.22
2023-04-18T12:50:36.384Z,100805.22
2023-04-18T12:53:05.173Z,100824.91
2023-04-18T12:55:33.899Z,100819.38
2023-04-18T12:58:02.386Z,100822.69
2023-04-18T13:00:32.689Z,100819.25
2023-04-18T13:03:02.864Z,100824.88
2023-04-18T13:05:34.081Z,100824.88
2023-04-18T13:10:34.620Z,100821.53
2023-04-18T13:13:03.963Z,100818.91
2023-04-18T13:15:32.417Z,100816.78
2023-04-18T13:18:05.160Z,100811.66
2023-04-18T13:20:34.007Z,100807.88
2023-04-18T13:23:03.873Z,100808.81
2023-04-18T13:25:32.551Z,100803.50
2023-04-18T13:28:01.233Z,100808.28
2023-04-18T13:30:29.777Z,100817.28
2023-04-18T13:32:58.218Z,100815.94
2023-04-18T13:35:27.954Z,100809.44
2023-04-18T13:37:56.415Z,100812.69
2023-04-18T13:40:25.834Z,100805.50
2023-04-18T13:42:54.171Z,100802.03
2023-04-18T13:45:22.576Z,100806.88
2023-04-18T13:47:50.990Z,100807.31
2023-04-18T13:50:19.501Z,100810.13
2023-04-18T13:52:49.504Z,100806.84
2023-04-18T13:55:18.611Z,100807.28
2023-04-18T13:57:48.074Z,100796.63
2023-04-18T14:00:17.599Z,100806.22
2023-04-18T14:02:46.439Z,100810.41
2023-04-18T14:05:14.874Z,100802.44
2023-04-18T14:07:43.264Z,100786.56
2023-04-18T14:10:13.323Z,100791.41
2023-04-18T14:12:41.680Z,100793.13
2023-04-18T14:15:11.409Z,100789.28
2023-04-18T14:17:39.951Z,100795.53
2023-04-18T14:20:09.531Z,100793.44
2023-04-18T14:22:38.005Z,100788.47
2023-04-18T14:25:08.581Z,100794.78
2023-04-18T14:27:38.508Z,100798.97
2023-04-18T14:30:08.945Z,100790.19
2023-04-18T14:32:37.577Z,100789.41
2023-04-18T14:35:07.249Z,100790.72
2023-04-18T14:37:35.617Z,100795.75
2023-04-18T14:40:05.628Z,100793.91
2023-04-18T14:42:34.073Z,100788.28
2023-04-18T14:45:05.300Z,100793.72
2023-04-18T14:47:34.822Z,100801.50
2023-04-18T14:50:03.294Z,100803.84
2023-04-18T14:52:31.737Z,100796.94
2023-04-18T14:55:00.134Z,100804.28
2023-04-18T14:57:31.449Z,100803.31
2023-04-18T14:59:59.945Z,100798.25
2023-04-18T15:02:29.933Z,100805.59
2023-04-18T15:04:58.762Z,100807.03
2023-04-18T15:07:27.239Z,100804.97
2023-04-18T15:09:55.663Z,100805.66
2023-04-18T15:12:24.076Z,100806.13
2023-04-18T15:14:54.028Z,100804.47
2023-04-18T15:17:22.424Z,100803.47
2023-04-18T15:19:52.241Z,100814.13
2023-04-18T15:22:20.597Z,100806.69
2023-04-18T15:24:49.015Z,100807.72
2023-04-18T15:27:17.351Z,100807.88
2023-04-18T15:29:45.743Z,100810.66
2023-04-18T15:32:14.554Z,100805.44
2023-04-18T15:34:43.029Z,100802.72
2023-04-18T15:37:12.835Z,100811.56
2023-04-18T15:39:42.300Z,100810.94
2023-04-18T15:42:10.793Z,100816.59
2023-04-18T15:44:39.208Z,100816.38
2023-04-18T15:47:07.939Z,100813.66
2023-04-18T15:49:36.293Z,100808.91
2023-04-18T15:52:06.459Z,100820.63
2023-04-18T15:54:36.730Z,100813.75
2023-04-18T15:57:05.171Z,100815.66
2023-04-18T15:59:33.501Z,100813.75
2023-04-18T16:02:03.460Z,100820.44
2023-04-18T16:04:32.222Z,100810.63
2023-04-18T16:07:00.591Z,100816.72
2023-04-18T16:09:29.163Z,100826.59
2023-04-18T16:11:59.117Z,100821.78
2023-04-18T16:14:27.424Z,100817.81
2023-04-18T16:16:55.853Z,100825.34
2023-04-18T16:19:24.216Z,100826.47
2023-04-18T16:21:52.699Z,100826.25
2023-04-18T16:24:21.006Z,100830.88
2023-04-18T16:26:49.347Z,100830.88
2023-04-18T16:29:19.197Z,100836.50
2023-04-18T16:31:47.953Z,100831.69
2023-04-18T16:34:16.700Z,100830.00
2023-04-18T16:36:45.121Z,100835.44
2023-04-18T16:39:13.763Z,100843.81
2023-04-18T16:41:42.158Z,100844.03
2023-04-18T16:44:10.860Z,100810.41
2023-04-18T16:46:40.702Z,100842.78
2023-04-18T16:49:09.151Z,100844.66
2023-04-18T16:51:38.733Z,100851.75
2023-04-18T16:54:08.719Z,100851.16
2023-04-18T16:56:37.142Z,100851.97
2023-04-18T16:59:05.536Z,100854.47
2023-04-18T17:01:34.141Z,100855.09
2023-04-18T17:04:04.319Z,100855.69
2023-04-18T17:06:33.280Z,100860.84
2023-04-18T17:09:02.259Z,100865.22
2023-04-18T17:11:32.223Z,100865.81
2023-04-18T17:14:00.800Z,100853.66
2023-04-18T17:16:29.230Z,100869.31
2023-04-18T17:18:57.561Z,100869.03
2023-04-18T17:21:27.561Z,100874.84
2023-04-18T17:23:56.549Z,100882.09
2023-04-18T17:26:26.500Z,100890.53
2023-04-18T17:28:54.964Z,100889.84
2023-04-18T17:31:23.485Z,100892.09
2023-04-18T17:33:52.099Z,100890.13
2023-04-18T17:36:20.435Z,100896.03
2023-04-18T17:38:50.423Z,100898.22
2023-04-18T17:41:20.457Z,100899.22
2023-04-18T17:43:50.823Z,100903.94
2023-04-18T17:46:19.323Z,100898.91
2023-04-18T17:48:47.745Z,100900.50
2023-04-18T17:51:16.985Z,100906.47
2023-04-18T17:53:45.479Z,100905.59
2023-04-18T17:56:15.236Z,100910.91
2023-04-18T17:58:43.709Z,100922.88
2023-04-18T18:01:15.835Z,100924.88
2023-04-18T18:03:45.388Z,100920.59
2023-04-18T18:06:14.342Z,100927.34
2023-04-18T18:08:44.091Z,100924.34
2023-04-18T18:11:12.491Z,100919.91
2023-04-18T18:13:42.415Z,100929.78
2023-04-18T18:16:10.927Z,100926.81
2023-04-18T18:18:39.357Z,100936.88
2023-04-18T18:21:07.704Z,100932.19
2023-04-18T18:23:36.094Z,100943.56
2023-04-18T18:26:06.676Z,100942.81
2023-04-18T18:28:35.269Z,100903.81
2023-04-18T18:31:05.217Z,100952.00
2023-04-18T18:33:33.627Z,100952.97
2023-04-18T18:36:02.004Z,100955.78
2023-04-18T18:38:30.350Z,100959.50
2023-04-18T18:40:59.089Z,100957.03
2023-04-18T18:43:28.041Z,100966.81
2023-04-18T18:45:56.373Z,100978.16
2023-04-18T18:48:26.382Z,100979.16
2023-04-18T18:50:56.567Z,100982.78
2023-04-18T18:53:24.942Z,100979.81
2023-04-18T18:55:53.353Z,100992.03
2023-04-18T18:58:22.094Z,100991.09
2023-04-18T19:00:51.233Z,100995.03
2023-04-18T19:03:21.426Z,101003.53
2023-04-18T19:05:51.396Z,100999.91
2023-04-18T19:08:19.738Z,101011.22
2023-04-18T19:10:48.102Z,101009.56
2023-04-18T19:13:16.484Z,101016.78
2023-04-18T19:15:44.950Z,101021.47
2023-04-18T19:18:13.378Z,101028.53
2023-04-18T19:20:41.916Z,101032.13
2023-04-18T19:23:11.774Z,101030.97
2023-04-18T19:25:40.251Z,101033.66
2023-04-18T19:28:08.660Z,101036.69
2023-04-18T19:30:37.044Z,101038.88
2023-04-18T19:33:05.749Z,101039.88
2023-04-18T19:35:36.472Z,101049.13
2023-04-18T19:38:06.243Z,101051.44
2023-04-18T19:40:36.096Z,101051.53
2023-04-18T19:43:04.574Z,101058.69
2023-04-18T19:45:32.928Z,101066.72
2023-04-18T19:48:01.818Z,101069.28
2023-04-18T19:50:30.185Z,101070.53
2023-04-18T19:52:58.549Z,101070.97
2023-04-18T19:55:27.044Z,101075.66
2023-04-18T19:57:57.340Z,101079.66
2023-04-18T20:00:25.723Z,101086.66
2023-04-18T20:02:54.525Z,101079.44
2023-04-18T20:05:23.375Z,101079.16
2023-04-18T20:07:52.165Z,101085.69
2023-04-18T20:10:21.988Z,101090.19
2023-04-18T20:12:50.332Z,101075.94
2023-04-18T20:15:20.271Z,101088.19
2023-04-18T20:17:48.810Z,101098.38
2023-04-18T20:20:17.327Z,101089.69
2023-04-18T20:22:47.480Z,101089.00
2023-04-18T20:25:15.912Z,101094.00
2023-04-18T20:27:44.268Z,101102.38
2023-04-18T20:30:13.132Z,101106.88
2023-04-18T20:32:43.009Z,101110.28
2023-04-18T20:35:11.369Z,101111.03
2023-04-18T20:37:41.460Z,101108.38
2023-04-18T20:40:10.701Z,101106.84
2023-04-18T20:42:39.186Z,101100.69
2023-04-18T20:45:11.288Z,101107.88
2023-04-18T20:47:41.265Z,101108.84
2023-04-18T20:50:14.169Z,101111.84
2023-04-18T20:52:43.055Z,101114.13
2023-04-18T20:55:11.999Z,101120.88
2023-04-18T20:57:40.546Z,101099.59
2023-04-18T21:00:10.678Z,101110.88
2023-04-18T21:02:39.347Z,101115.69
2023-04-18T21:05:08.226Z,101122.72
2023-04-18T21:07:38.368Z,101121.56
2023-04-18T21:10:07.636Z,101126.94
2023-04-18T21:12:36.067Z,101126.91
2023-04-18T21:15:05.608Z,101128.44
2023-04-18T21:17:33.922Z,101128.00
2023-04-18T21:20:02.359Z,101124.28
2023-04-18T21:22:30.944Z,101127.91
2023-04-18T21:25:00.694Z,101135.78
2023-04-18T21:27:29.192Z,101137.44
2023-04-18T21:29:57.617Z,101143.31
2023-04-18T21:32:26.047Z,101150.03
2023-04-18T21:34:55.888Z,101144.41
2023-04-18T21:37:24.242Z,101148.00
2023-04-18T21:39:52.682Z,101143.75
2023-04-18T21:42:22.483Z,101137.69
2023-04-18T21:44:50.917Z,101146.81
2023-04-18T21:47:19.311Z,101130.59
2023-04-18T21:49:47.827Z,101136.78
2023-04-18T21:52:16.262Z,101146.63
2023-04-18T21:54:44.631Z,101147.63
2023-04-18T21:57:13.026Z,101145.94
2023-04-18T21:59:42.912Z,101149.84
2023-04-18T22:02:11.526Z,101144.75
2023-04-18T22:04:42.963Z,101138.97
2023-04-18T22:07:12.647Z,101140.66
2023-04-18T22:09:41.123Z,101129.78
2023-04-18T22:12:10.068Z,101140.44
2023-04-18T22:14:38.560Z,101137.66
2023-04-18T22:17:09.350Z,101078.34
2023-04-18T22:19:39.765Z,101139.09
2023-04-18T22:22:08.166Z,101138.16
2023-04-18T22:24:36.470Z,101133.22
2023-04-18T22:27:04.978Z,101138.25
2023-04-18T22:29:33.398Z,101136.19
2023-04-18T22:32:01.921Z,101126.19
2023-04-18T22:34:31.722Z,101135.88
2023-04-18T22:37:00.188Z,101137.81
2023-04-18T22:39:28.564Z,101138.56
2023-04-18T22:41:57.006Z,101141.34
2023-04-18T22:44:25.435Z,101137.59
2023-04-18T22:46:54.812Z,101136.66
2023-04-18T22:49:23.455Z,101128.94
2023-04-18T22:51:54.605Z,101139.13
2023-04-18T22:54:23.114Z,101135.13
2023-04-18T22:56:51.517Z,101141.56
2023-04-18T22:59:20.180Z,101148.09
2023-04-18T23:01:48.568Z,101142.44
2023-04-18T23:04:17.359Z,101152.84
2023-04-18T23:06:45.953Z,101144.00
2023-04-18T23:09:19.697Z,101154.19
2023-04-18T23:11:48.091Z,101148.84
2023-04-18T23:14:17.007Z,101155.38
2023-04-18T23:16:45.745Z,101148.47
2023-04-18T23:19:14.076Z,101161.69
2023-04-18T23:21:42.564Z,101157.44
2023-04-18T23:24:12.473Z,101169.06
2023-04-18T23:26:42.440Z,101151.41
2023-04-18T23:29:10.834Z,101161.69
2023-04-18T23:31:39.296Z,101156.97
2023-04-18T23:34:07.768Z,101161.56
2023-04-18T23:36:37.033Z,101161.91
2023-04-18T23:39:05.571Z,101160.22
2023-04-18T23:41:35.085Z,101159.13
2023-04-18T23:44:04.849Z,101172.28
2023-04-18T23:46:35.705Z,101161.38
2023-04-18T23:49:04.798Z,101160.53
2023-04-18T23:51:33.175Z,101167.44
2023-04-18T23:54:01.564Z,101165.97
2023-04-18T23:56:30.291Z,101160.41
2023-04-18T23:58:58.827Z,101161.59
